createdAt,value
2023-04-09T00:01:25.729Z,100568.39
2023-04-09T00:04:33.000Z,100568.86
2023-04-09T00:07:38.817Z,100566.85
2023-04-09T00:10:44.734Z,100556.96
2023-04-09T00:13:52.756Z,100552.28
2023-04-09T00:16:58.031Z,100550.27
2023-04-09T00:20:03.620Z,100547.45
2023-04-09T00:23:10.702Z,100544.55
2023-04-09T00:26:17.017Z,100542.27
2023-04-09T00:29:23.642Z,100551.31
2023-04-09T00:32:28.973Z,100548.11
2023-04-09T00:35:34.391Z,100547.67
2023-04-09T00:38:40.807Z,100542.78
2023-04-09T00:41:46.258Z,100550.77
2023-04-09T00:44:51.496Z,100548.70
2023-04-09T00:47:56.839Z,100552.39
2023-04-09T00:51:02.351Z,100554.05
2023-04-09T00:56:35.013Z,100556.85
2023-04-09T01:02:07.594Z,100551.50
2023-04-09T01:10:56.635Z,100557.75
2023-04-09T01:14:16.768Z,100565.86
2023-04-09T01:17:26.445Z,100571.52
2023-04-09T01:20:50.242Z,100561.14
2023-04-09T01:24:37.142Z,100566.55
2023-04-09T01:27:48.052Z,100567.92
2023-04-09T01:30:54.362Z,100566.72
2023-04-09T01:34:00.774Z,100559.70
2023-04-09T01:39:37.276Z,100560.12
2023-04-09T01:42:42.816Z,100565.58
2023-04-09T01:45:49.588Z,100570.86
2023-04-09T01:48:55.940Z,100561.96
2023-04-09T01:52:01.320Z,100559.23
2023-04-09T01:55:07.132Z,100558.84
2023-04-09T01:58:12.438Z,100562.17
2023-04-09T02:01:25.108Z,100556.68
2023-04-09T02:04:39.640Z,100553.91
2023-04-09T02:10:14.319Z,100553.80
2023-04-09T02:15:45.556Z,100553.20
2023-04-09T02:18:50.847Z,100554.22
2023-04-09T02:24:23.591Z,100557.31
2023-04-09T02:29:58.263Z,100564.22
2023-04-09T02:35:30.414Z,100564.60
2023-04-09T02:38:36.052Z,100562.72
2023-04-09T02:41:41.790Z,100569.58
2023-04-09T02:44:48.518Z,100575.55
2023-04-09T02:47:54.516Z,100577.12
2023-04-09T02:51:04.778Z,100576.66
2023-04-09T02:54:10.820Z,100579.42
2023-04-09T02:57:16.143Z,100580.11
2023-04-09T03:02:50.208Z,100588.53
2023-04-09T03:05:56.434Z,100590.45
2023-04-09T03:09:02.027Z,100587.69
2023-04-09T03:14:39.277Z,100595.94
2023-04-09T03:17:44.968Z,100597.53
2023-04-09T03:20:43.600Z,100601.49
2023-04-09T03:23:49.750Z,100601.28
2023-04-09T03:29:22.484Z,100602.55
2023-04-09T03:34:57.407Z,100601.95
2023-04-09T03:40:30.764Z,100602.22
2023-04-09T03:46:03.171Z,100600.42
2023-04-09T03:49:09.058Z,100605.06
2023-04-09T03:54:41.292Z,100604.80
2023-04-09T04:00:15.692Z,100607.36
2023-04-09T04:03:17.276Z,100614.22
2023-04-09T04:08:54.066Z,100620.53
2023-04-09T04:14:31.792Z,100617.80
2023-04-09T04:20:05.883Z,100628.48
2023-04-09T04:25:39.524Z,100628.88
2023-04-09T04:31:17.202Z,100635.23
2023-04-09T04:37:07.483Z,100640.12
2023-04-09T04:40:14.563Z,100634.34
2023-04-09T04:43:22.864Z,100636.55
2023-04-09T04:48:57.536Z,100636.50
2023-04-09T04:52:03.104Z,100643.66
2023-04-09T04:57:35.562Z,100643.11
2023-04-09T05:03:10.667Z,100649.42
2023-04-09T05:06:22.635Z,100650.52
2023-04-09T05:09:28.575Z,100659.59
2023-04-09T05:12:37.705Z,100658.20
2023-04-09T05:15:44.966Z,100660.39
2023-04-09T05:18:51.198Z,100662.81
2023-04-09T05:21:57.627Z,100665.06
2023-04-09T05:25:03.400Z,100663.70
2023-04-09T05:28:12.679Z,100669.90
2023-04-09T05:31:19.594Z,100671.50
2023-04-09T05:34:27.318Z,100671.36
2023-04-09T05:37:32.977Z,100677.39
2023-04-09T05:40:38.603Z,100675.53
2023-04-09T05:43:44.727Z,100681.44
2023-04-09T05:46:50.429Z,100690.36
2023-04-09T05:49:58.964Z,100694.45
2023-04-09T05:53:05.726Z,100700.74
2023-04-09T05:56:12.038Z,100704.36
2023-04-09T05:59:19.565Z,100700.27
2023-04-09T06:02:25.660Z,100705.26
2023-04-09T06:05:31.950Z,100705.30
2023-04-09T06:08:40.526Z,100708.03
2023-04-09T06:14:12.057Z,100709.63
2023-04-09T06:19:44.162Z,100710.73
2023-04-09T06:25:16.276Z,100718.34
2023-04-09T06:28:21.934Z,100723.48
2023-04-09T06:33:54.994Z,100719.75
2023-04-09T06:39:28.141Z,100716.84
2023-04-09T06:42:33.807Z,100719.75
2023-04-09T06:45:51.161Z,100720.62
2023-04-09T06:48:56.752Z,100719.07
2023-04-09T06:52:03.102Z,100725.58
2023-04-09T06:55:08.784Z,100734.33
2023-04-09T06:58:14.897Z,100737.21
2023-04-09T07:01:21.771Z,100736.89
2023-04-09T07:06:54.052Z,100742.85
2023-04-09T07:12:29.127Z,100746.44
2023-04-09T07:18:00.518Z,100752.78
2023-04-09T07:21:06.823Z,100748.31
2023-04-09T07:26:37.787Z,100748.66
2023-04-09T07:29:43.367Z,100743.34
2023-04-09T07:32:49.048Z,100740.62
2023-04-09T07:35:56.064Z,100744.01
2023-04-09T07:39:01.913Z,100744.58
2023-04-09T07:44:34.810Z,100742.37
2023-04-09T07:52:38.897Z,100751.94
2023-04-09T07:55:44.501Z,100747.16
2023-04-09T07:58:51.642Z,100744.93
2023-04-09T08:01:58.450Z,100753.48
2023-04-09T08:05:03.822Z,100753.16
2023-04-09T08:08:10.760Z,100760.49
2023-04-09T08:11:16.642Z,100759.98
2023-04-09T08:14:22.437Z,100760.16
2023-04-09T08:17:28.710Z,100755.34
2023-04-09T08:20:34.948Z,100758.09
2023-04-09T08:23:41.941Z,100761.16
2023-04-09T08:26:48.727Z,100763.38
2023-04-09T08:29:54.842Z,100764.95
2023-04-09T08:33:00.751Z,100771.27
2023-04-09T08:36:06.195Z,100772.26
2023-04-09T08:39:12.279Z,100770.88
2023-04-09T08:42:19.757Z,100770.59
2023-04-09T08:45:26.903Z,100770.23
2023-04-09T08:48:32.180Z,100774.64
2023-04-09T08:54:12.114Z,100776.03
2023-04-09T08:57:21.795Z,100774.84
2023-04-09T09:02:53.662Z,100777.23
2023-04-09T09:06:00.787Z,100770.22
2023-04-09T09:09:25.411Z,100772.80
2023-04-09T09:12:45.935Z,100766.48
2023-04-09T09:15:51.422Z,100769.04
2023-04-09T09:18:59.553Z,100771.09
2023-04-09T09:22:10.574Z,100767.00
2023-04-09T09:25:16.810Z,100768.02
2023-04-09T09:28:27.020Z,100769.23
2023-04-09T09:31:34.296Z,100764.60
2023-04-09T09:34:39.987Z,100767.66
2023-04-09T09:37:46.157Z,100772.56
2023-04-09T09:40:52.764Z,100762.39
2023-04-09T09:43:59.817Z,100758.89
2023-04-09T09:47:04.995Z,100763.65
2023-04-09T09:50:11.332Z,100763.92
2023-04-09T09:53:20.741Z,100769.00
2023-04-09T09:56:37.890Z,100764.48
2023-04-09T09:59:46.309Z,100761.27
2023-04-09T10:03:05.549Z,100766.52
2023-04-09T10:06:11.724Z,100758.16
2023-04-09T10:09:18.941Z,100761.92
2023-04-09T10:12:23.839Z,100764.23
2023-04-09T10:20:33.956Z,100768.98
2023-04-09T10:23:55.288Z,100769.95
2023-04-09T10:27:01.456Z,100768.70
2023-04-09T10:30:08.605Z,100769.20
2023-04-09T10:33:28.555Z,100769.22
2023-04-09T10:36:34.836Z,100771.91
2023-04-09T10:39:46.206Z,100766.11
2023-04-09T10:42:52.986Z,100770.62
2023-04-09T10:46:01.051Z,100768.56
2023-04-09T10:49:27.625Z,100777.36
2023-04-09T10:52:32.863Z,100775.22
2023-04-09T10:55:56.181Z,100773.12
2023-04-09T10:59:02.695Z,100774.30
2023-04-09T11:02:10.475Z,100773.04
2023-04-09T11:05:35.638Z,100771.39
2023-04-09T11:08:49.629Z,100769.89
2023-04-09T11:11:55.466Z,100772.97
2023-04-09T11:15:00.266Z,100767.67
2023-04-09T11:18:06.442Z,100771.64
2023-04-09T11:23:43.785Z,100760.84
2023-04-09T11:26:53.015Z,100770.42
2023-04-09T11:32:24.236Z,100763.94
2023-04-09T11:38:01.336Z,100748.86
2023-04-09T11:43:33.378Z,100753.64
2023-04-09T11:49:09.539Z,100753.33
2023-04-09T11:54:46.648Z,100756.56
2023-04-09T11:57:58.216Z,100751.44
2023-04-09T12:01:06.734Z,100753.33
2023-04-09T12:04:13.924Z,100751.08
2023-04-09T12:07:24.842Z,100749.72
2023-04-09T12:13:02.217Z,100742.36
2023-04-09T12:16:12.983Z,100738.91
2023-04-09T12:19:21.562Z,100737.73
2023-04-09T12:22:28.190Z,100734.29
2023-04-09T12:28:03.447Z,100740.47
2023-04-09T12:31:10.412Z,100736.69
2023-04-09T12:34:17.308Z,100734.31
2023-04-09T12:37:27.550Z,100731.75
2023-04-09T12:40:34.284Z,100728.31
2023-04-09T12:43:39.907Z,100729.87
2023-04-09T12:46:46.235Z,100726.61
2023-04-09T12:49:53.031Z,100726.95
2023-04-09T12:55:25.932Z,100726.44
2023-04-09T13:00:59.232Z,100726.09
2023-04-09T13:04:05.725Z,100720.77
2023-04-09T13:07:12.830Z,100721.95
2023-04-09T13:10:19.770Z,100719.75
2023-04-09T13:13:26.425Z,100710.33
2023-04-09T13:19:14.929Z,100720.77
2023-04-09T13:22:20.136Z,100717.70
2023-04-09T13:25:31.684Z,100716.33
2023-04-09T13:28:39.854Z,100718.21
2023-04-09T13:31:49.137Z,100715.99
2023-04-09T13:37:22.315Z,100714.95
2023-04-09T13:40:29.241Z,100706.55
2023-04-09T13:43:46.379Z,100708.78
2023-04-09T13:46:53.484Z,100709.66
2023-04-09T13:50:00.572Z,100711.70
2023-04-09T13:55:37.669Z,100712.55
2023-04-09T13:58:42.655Z,100714.63
2023-04-09T14:01:49.730Z,100718.22
2023-04-09T14:04:55.440Z,100717.03
2023-04-09T14:08:00.746Z,100712.22
2023-04-09T14:11:06.528Z,100703.30
2023-04-09T14:14:11.571Z,100708.11
2023-04-09T14:17:17.121Z,100715.47
2023-04-09T14:20:23.491Z,100704.52
2023-04-09T14:23:29.457Z,100700.59
2023-04-09T14:26:35.785Z,100702.97
2023-04-09T14:29:43.111Z,100709.33
2023-04-09T14:32:50.273Z,100708.47
2023-04-09T14:35:56.331Z,100699.22
2023-04-09T14:39:02.888Z,100704.36
2023-04-09T14:42:09.359Z,100708.81
2023-04-09T14:45:14.818Z,100708.80
2023-04-09T14:48:21.127Z,100716.34
2023-04-09T14:51:27.370Z,100712.56
2023-04-09T14:54:33.280Z,100708.64
2023-04-09T14:57:39.957Z,100709.48
2023-04-09T15:00:48.653Z,100705.40
2023-04-09T15:03:55.539Z,100708.28
2023-04-09T15:07:00.575Z,100702.31
2023-04-09T15:10:06.336Z,100704.70
2023-04-09T15:13:12.470Z,100702.31
2023-04-09T15:16:19.040Z,100702.49
2023-04-09T15:19:24.773Z,100706.23
2023-04-09T15:22:30.408Z,100703.16
2023-04-09T15:28:02.562Z,100701.63
2023-04-09T15:31:09.487Z,100706.92
2023-04-09T15:34:15.671Z,100705.73
2023-04-09T15:37:22.515Z,100705.04
2023-04-09T15:40:30.000Z,100705.36
2023-04-09T15:46:08.394Z,100702.97
2023-04-09T15:49:14.585Z,100705.02
2023-04-09T15:52:21.924Z,100704.83
2023-04-09T15:57:58.968Z,100696.78
2023-04-09T16:01:04.677Z,100687.53
2023-04-09T16:04:11.442Z,100689.24
2023-04-09T16:07:18.977Z,100692.31
2023-04-09T16:10:25.780Z,100688.23
2023-04-09T16:13:31.655Z,100685.18
2023-04-09T16:16:37.713Z,100679.18
2023-04-09T16:19:44.116Z,100681.03
2023-04-09T16:22:50.261Z,100675.41
2023-04-09T16:25:55.383Z,100680.73
2023-04-09T16:31:28.019Z,100685.98
2023-04-09T16:34:34.182Z,100683.95
2023-04-09T16:40:06.004Z,100679.00
2023-04-09T16:45:39.212Z,100687.23
2023-04-09T16:51:11.422Z,100691.15
2023-04-09T16:56:44.379Z,100691.97
2023-04-09T16:59:51.597Z,100693.70
2023-04-09T17:05:25.237Z,100699.81
2023-04-09T17:13:28.479Z,100698.98
2023-04-09T17:16:36.022Z,100695.21
2023-04-09T17:22:07.899Z,100700.67
2023-04-09T17:25:17.373Z,100700.14
2023-04-09T17:30:56.402Z,100709.84
2023-04-09T17:34:01.608Z,100712.76
2023-04-09T17:39:50.274Z,100718.64
2023-04-09T17:42:56.346Z,100716.23
2023-04-09T17:46:04.513Z,100715.11
2023-04-09T17:51:36.816Z,100722.11
2023-04-09T17:54:47.803Z,100724.84
2023-04-09T17:57:53.644Z,100725.02
2023-04-09T18:01:00.176Z,100727.52
2023-04-09T18:04:05.499Z,100725.28
2023-04-09T18:07:13.102Z,100729.44
2023-04-09T18:12:49.035Z,100728.68
2023-04-09T18:15:55.384Z,100724.61
2023-04-09T18:19:01.316Z,100730.07
2023-04-09T18:22:07.189Z,100727.06
2023-04-09T18:25:14.198Z,100729.55
2023-04-09T18:28:21.144Z,100733.14
2023-04-09T18:31:28.205Z,100729.97
2023-04-09T18:34:33.598Z,100730.41
2023-04-09T18:37:41.143Z,100724.92
2023-04-09T18:40:48.117Z,100733.73
2023-04-09T18:43:53.406Z,100734.46
2023-04-09T18:46:59.435Z,100739.01
2023-04-09T18:50:06.228Z,100744.52
2023-04-09T18:53:13.655Z,100736.39
2023-04-09T18:56:18.964Z,100733.86
2023-04-09T18:59:25.885Z,100736.16
2023-04-09T19:02:32.462Z,100734.44
2023-04-09T19:05:38.948Z,100738.08
2023-04-09T19:08:45.478Z,100727.78
2023-04-09T19:11:51.785Z,100730.24
2023-04-09T19:14:58.082Z,100725.27
2023-04-09T19:20:30.220Z,100729.68
2023-04-09T19:23:36.403Z,100719.65
2023-04-09T19:26:41.645Z,100722.92
2023-04-09T19:29:46.510Z,100722.03
2023-04-09T19:32:51.979Z,100728.20
2023-04-09T19:35:57.381Z,100723.77
2023-04-09T19:39:04.589Z,100732.05
2023-04-09T19:42:10.343Z,100729.34
2023-04-09T19:45:16.666Z,100734.64
2023-04-09T19:48:22.447Z,100734.12
2023-04-09T19:51:32.964Z,100734.61
2023-04-09T19:54:37.855Z,100730.45
2023-04-09T20:00:11.782Z,100730.08
2023-04-09T20:03:19.026Z,100732.60
2023-04-09T20:06:26.222Z,100728.27
2023-04-09T20:09:34.098Z,100728.30
2023-04-09T20:12:39.908Z,100719.29
2023-04-09T20:15:45.763Z,100725.16
2023-04-09T20:18:52.108Z,100728.02
2023-04-09T20:21:59.655Z,100725.53
2023-04-09T20:25:07.799Z,100718.54
2023-04-09T20:28:15.294Z,100723.02
2023-04-09T20:31:21.951Z,100720.48
2023-04-09T20:34:30.603Z,100732.95
2023-04-09T20:37:36.290Z,100727.88
2023-04-09T20:40:41.984Z,100723.52
2023-04-09T20:43:47.658Z,100724.58
2023-04-09T20:46:54.858Z,100724.03
2023-04-09T20:50:03.423Z,100729.61
2023-04-09T20:53:10.777Z,100723.39
2023-04-09T20:56:16.177Z,100722.41
2023-04-09T20:59:22.820Z,100717.64
2023-04-09T21:02:28.604Z,100726.63
2023-04-09T21:05:34.328Z,100722.79
2023-04-09T21:08:41.440Z,100722.92
2023-04-09T21:11:47.505Z,100723.48
2023-04-09T21:14:53.083Z,100717.88
2023-04-09T21:17:59.452Z,100708.25
2023-04-09T21:21:05.662Z,100705.02
2023-04-09T21:24:11.608Z,100709.92
2023-04-09T21:27:17.082Z,100712.18
2023-04-09T21:30:23.855Z,100707.31
2023-04-09T21:33:30.177Z,100707.78
2023-04-09T21:36:37.916Z,100708.33
2023-04-09T21:39:44.213Z,100711.75
2023-04-09T21:42:50.131Z,100715.20
2023-04-09T21:45:55.643Z,100710.64
2023-04-09T21:49:00.636Z,100713.23
2023-04-09T21:52:07.635Z,100710.85
2023-04-09T21:55:14.095Z,100716.98
2023-04-09T21:58:20.597Z,100712.08
2023-04-09T22:01:29.311Z,100710.64
2023-04-09T22:04:33.383Z,100701.94
2023-04-09T22:07:38.815Z,100694.61
2023-04-09T22:10:43.440Z,100694.45
2023-04-09T22:13:48.916Z,100695.17
2023-04-09T22:16:55.383Z,100689.70
2023-04-09T22:20:01.396Z,100684.17
2023-04-09T22:23:10.665Z,100677.69
2023-04-09T22:26:16.397Z,100676.91
2023-04-09T22:29:24.926Z,100678.32
2023-04-09T22:32:30.813Z,100686.81
2023-04-09T22:35:36.748Z,100687.57
2023-04-09T22:38:45.422Z,100693.38
2023-04-09T22:41:52.214Z,100694.98
2023-04-09T22:44:58.023Z,100693.88
2023-04-09T22:48:04.226Z,100706.03
2023-04-09T22:51:10.130Z,100695.63
2023-04-09T22:54:15.219Z,100700.61
2023-04-09T22:57:20.578Z,100701.37
2023-04-09T23:00:27.591Z,100707.98
2023-04-09T23:03:33.203Z,100705.22
2023-04-09T23:06:41.007Z,100711.71
2023-04-09T23:09:47.156Z,100707.45
2023-04-09T23:12:53.470Z,100699.98
2023-04-09T23:15:59.912Z,100692.86
2023-04-09T23:19:08.840Z,100691.55
2023-04-09T23:22:14.243Z,100691.33
2023-04-09T23:25:20.945Z,100691.16
2023-04-09T23:28:27.770Z,100688.98
2023-04-09T23:31:34.321Z,100689.33
2023-04-09T23:34:40.143Z,100684.13
2023-04-09T23:37:45.448Z,100678.15
2023-04-09T23:40:50.757Z,100678.45
2023-04-09T23:43:56.210Z,100686.56
2023-04-09T23:47:02.005Z,100682.80
2023-04-09T23:57:46.857Z,100678.54
